Lyons, Nebraska
Current Conditions -  °F | °C
As of 4:54 PM on Thursday 27 Nov 2014 (Local Time) from KTQE Reporting Station
Clear Clear  
Wind Chill:   Ceiling: Unl
Heat Index: 21°   Visibility: 10mi
Dew Point:   Wind: 15mph
Humidity: 55%   Direction: 130°SE
Pressure: 30.32"   Gusts: NA
Location:  41.94°N, 96.48°W
Report Text: KTQE 272254Z AUTO 13013KT 10SM CLR M06/M14 A3032 RMK AO2 SLP280 T10611139
Loading
Personal Weather Stations






























Interactive Weather Map New forecast layout! Learn more

10-Day Weather Forecast

Advertisements
Track Severe Weather on mobile